This demonstration page uses our WeatherBlox Daily Observations layout. Learn more.

Left ArrowRight Arrow

30.21309, -93.2044

Hourly Observations for October 2, 2015

Temp ( °F °C ) Dew Point ( °F °C ) Humidity (%) Winds ( mph kmh ) Pressure ( in mb ) Visibility ( mi km ) Precip ( " mm )
12:15 am 00:15 Clear 65 18.4 53 11.9 66 66 N 6 9 N/A 10 16 0.00 0.00
12:35 am 00:35 Clear 65 18.6 53 11.6 64 64 N 7 11 N/A 10 16 0.00 0.00
12:55 am 00:55 Clear 65 18.5 52 10.9 61 61 NNE 6 9 N/A 10 16 0.00 0.00
1:15 am 01:15 Clear 64 18 51 10.7 63 63 NNE 7 11 N/A 10 16 0.00 0.00
1:35 am 01:35 Clear 64 17.5 51 10.6 64 64 N 5 7 N/A 10 16 0.00 0.00
1:55 am 01:55 Clear 63 17 52 11.1 68 68 N 5 7 N/A 10 16 0.00 0.00
2:15 am 02:15 Clear 62 16.9 51 10.7 67 67 N 7 11 N/A 10 16 0.00 0.00
2:35 am 02:35 Clear 62 16.4 51 10.5 68 68 N 5 7 N/A 10 16 0.00 0.00
2:55 am 02:55 Clear 61 16.1 51 10.3 69 69 N 5 7 N/A 10 16 0.00 0.00
3:15 am 03:15 Clear 60 15.8 50 10 69 69 N 6 9 N/A 10 16 0.00 0.00
3:35 am 03:35 Clear 60 15.3 50 9.8 70 70 N 5 7 N/A 10 16 0.00 0.00
3:55 am 03:55 Clear 60 15.4 49 9.6 69 69 N 6 9 N/A 10 16 0.00 0.00
4:15 am 04:15 Clear 59 15 49 9.4 69 69 N 7 11 N/A 10 16 0.00 0.00
4:35 am 04:35 Clear 59 14.9 49 9.5 70 70 N 6 9 N/A 10 16 0.00 0.00
4:55 am 04:55 Clear 58 14.6 49 9.5 72 72 N 6 9 N/A 10 16 0.00 0.00
5:15 am 05:15 Clear 58 14.5 49 9.3 71 71 N 7 11 N/A 10 16 0.00 0.00
6:00 am 06:00 Mostly Clear 57 14 48 9 72 72 NNW 8 13 29.94 1014 10 16 0.00 0.00
6:55 am 06:55 Mostly Clear 57 14 48 9 72 72 NNW 8 13 29.97 1015 10 16 0.00 0.00
7:55 am 07:55 Mostly Sunny 59 15 48 9 68 68 NNW 12 19 29.97 1015 10 16 0.00 0.00
8:50 am 08:50 Mostly Sunny 61 16 50 10 68 68 N 13 20 29.97 1015 10 16 0.00 0.00
9:50 am 09:50 Mostly Sunny 64 18 52 11 64 64 N 12 19 29.97 1015 10 16 0.00 0.00
10:50 am 10:50 Mostly Sunny 66 19 52 11 60 60 NNW 12 19 29.97 1015 10 16 0.00 0.00
12:50 pm 12:50 Mostly Sunny 73 23 52 11 47 47 N 15 24 29.91 1013 10 16 0.00 0.00

Powered by AerisWeather